createdAt,value
2022-12-24T00:01:05.346Z,19.60
2022-12-24T00:03:32.697Z,19.73
2022-12-24T00:05:59.359Z,22.73
2022-12-24T00:08:26.001Z,11.00
2022-12-24T00:10:53.515Z,12.57
2022-12-24T00:13:21.398Z,15.50
2022-12-24T00:15:49.122Z,22.73
2022-12-24T00:18:16.029Z,18.47
2022-12-24T00:20:47.193Z,16.50
2022-12-24T00:23:14.083Z,14.63
2022-12-24T00:25:40.727Z,18.50
2022-12-24T00:28:07.381Z,22.77
2022-12-24T00:30:33.962Z,23.90
2022-12-24T00:33:00.568Z,26.93
2022-12-24T00:35:27.384Z,14.33
2022-12-24T00:37:53.917Z,11.50
2022-12-24T00:40:20.519Z,15.13
2022-12-24T00:42:47.104Z,20.23
2022-12-24T00:45:13.775Z,18.93
2022-12-24T00:47:40.447Z,10.83
2022-12-24T00:50:07.748Z,15.70
2022-12-24T00:52:34.899Z,16.07
2022-12-24T00:55:01.546Z,10.03
2022-12-24T00:57:28.143Z,17.90
2022-12-24T00:59:54.783Z,29.07
2022-12-24T01:02:21.809Z,12.73
2022-12-24T01:05:07.043Z,14.77
2022-12-24T01:07:33.989Z,16.97
2022-12-24T01:10:00.614Z,18.73
2022-12-24T01:12:27.620Z,11.00
2022-12-24T01:14:54.175Z,19.90
2022-12-24T01:17:20.875Z,20.63
2022-12-24T01:19:47.505Z,14.87
2022-12-24T01:22:14.122Z,20.97
2022-12-24T01:24:41.720Z,20.07
2022-12-24T01:27:08.365Z,14.27
2022-12-24T01:29:34.964Z,14.17
2022-12-24T01:32:01.575Z,19.97
2022-12-24T01:34:28.168Z,17.10
2022-12-24T01:36:54.720Z,16.00
2022-12-24T01:39:21.388Z,18.00
2022-12-24T01:42:06.467Z,15.03
2022-12-24T01:44:37.109Z,14.47
2022-12-24T01:47:17.556Z,18.40
2022-12-24T01:49:52.580Z,20.70
2022-12-24T01:52:27.963Z,22.60
2022-12-24T01:54:59.754Z,16.87
2022-12-24T01:57:29.771Z,17.67
2022-12-24T02:00:00.563Z,13.10
2022-12-24T02:02:28.750Z,14.43
2022-12-24T02:05:03.312Z,14.70
2022-12-24T02:07:30.915Z,15.97
2022-12-24T02:09:59.425Z,21.50
2022-12-24T02:12:28.629Z,26.07
2022-12-24T02:14:55.425Z,22.47
2022-12-24T02:17:32.017Z,17.63
2022-12-24T02:20:13.479Z,26.47
2022-12-24T02:23:04.650Z,21.80
2022-12-24T02:25:52.338Z,20.53
2022-12-24T02:28:33.863Z,24.43
2022-12-24T02:31:24.144Z,16.77
2022-12-24T02:33:57.590Z,16.50
2022-12-24T02:36:35.023Z,12.00
2022-12-24T02:39:08.166Z,10.37
2022-12-24T02:42:02.709Z,24.50
2022-12-24T02:44:31.213Z,30.60
2022-12-24T02:47:00.507Z,22.90
2022-12-24T02:49:27.171Z,20.57
2022-12-24T02:51:53.737Z,14.47
2022-12-24T02:54:20.501Z,12.17
2022-12-24T02:57:23.694Z,18.40
2022-12-24T03:00:02.393Z,26.73
2022-12-24T03:02:45.816Z,17.17
2022-12-24T03:05:39.361Z,35.37
2022-12-24T03:08:35.802Z,20.73
2022-12-24T03:11:16.575Z,15.57
2022-12-24T03:13:43.735Z,14.90
2022-12-24T03:16:17.780Z,11.23
2022-12-24T03:18:49.088Z,23.37
2022-12-24T03:21:25.773Z,14.67
2022-12-24T03:23:52.403Z,21.80
2022-12-24T03:26:19.989Z,18.57
2022-12-24T03:28:47.770Z,19.60
2022-12-24T03:31:14.922Z,19.30
2022-12-24T03:33:41.847Z,21.77
2022-12-24T03:36:09.387Z,23.20
2022-12-24T03:38:35.992Z,18.77
2022-12-24T03:41:02.807Z,21.07
2022-12-24T03:43:29.474Z,28.70
2022-12-24T03:45:56.154Z,22.00
2022-12-24T03:48:26.115Z,15.63
2022-12-24T03:50:58.759Z,22.60
2022-12-24T03:53:25.317Z,20.70
2022-12-24T03:55:51.858Z,19.90
2022-12-24T03:58:18.451Z,18.23
2022-12-24T04:00:45.093Z,22.23
2022-12-24T04:03:11.778Z,17.33
2022-12-24T04:05:38.378Z,23.93
2022-12-24T04:08:05.088Z,12.83
2022-12-24T04:10:31.652Z,26.33
2022-12-24T04:12:58.301Z,18.50
2022-12-24T04:15:24.884Z,16.83
2022-12-24T04:17:51.429Z,22.40
2022-12-24T04:20:18.022Z,18.40
2022-12-24T04:22:44.606Z,20.40
2022-12-24T04:25:11.225Z,23.77
2022-12-24T04:27:37.796Z,19.00
2022-12-24T04:30:04.926Z,20.17
2022-12-24T04:32:31.531Z,20.57
2022-12-24T04:34:58.062Z,17.23
2022-12-24T04:37:24.630Z,16.90
2022-12-24T04:39:51.205Z,19.00
2022-12-24T04:42:17.765Z,25.83
2022-12-24T04:44:44.322Z,19.93
2022-12-24T04:47:10.930Z,13.93
2022-12-24T04:49:37.644Z,22.13
2022-12-24T04:52:04.413Z,16.27
2022-12-24T04:54:30.972Z,20.00
2022-12-24T04:56:57.524Z,17.97
2022-12-24T04:59:24.095Z,18.20
2022-12-24T05:01:50.751Z,29.03
2022-12-24T05:04:17.359Z,35.07
2022-12-24T05:06:43.915Z,20.90
2022-12-24T05:09:10.516Z,16.80
2022-12-24T05:11:37.090Z,15.73
2022-12-24T05:14:04.085Z,29.93
2022-12-24T05:16:30.704Z,15.83
2022-12-24T05:18:57.314Z,14.27
2022-12-24T05:21:24.859Z,15.60
2022-12-24T05:24:10.430Z,25.40
2022-12-24T05:26:41.802Z,20.23
2022-12-24T05:29:09.850Z,17.73
2022-12-24T05:31:36.576Z,12.10
2022-12-24T05:34:03.454Z,14.20
2022-12-24T05:36:30.156Z,11.13
2022-12-24T05:38:56.994Z,13.63
2022-12-24T05:41:23.759Z,32.00
2022-12-24T05:43:50.445Z,23.00
2022-12-24T05:46:20.323Z,21.93
2022-12-24T05:48:47.659Z,17.60
2022-12-24T05:51:15.334Z,22.00
2022-12-24T05:53:42.039Z,17.67
2022-12-24T05:56:11.036Z,13.83
2022-12-24T05:58:38.775Z,15.53
2022-12-24T06:01:06.326Z,13.23
2022-12-24T06:03:33.776Z,11.17
2022-12-24T06:06:05.764Z,25.83
2022-12-24T06:08:33.683Z,17.83
2022-12-24T06:11:02.284Z,13.57
2022-12-24T06:13:29.718Z,12.23
2022-12-24T06:15:58.000Z,14.70
2022-12-24T06:18:25.081Z,18.33
2022-12-24T06:20:56.291Z,14.17
2022-12-24T06:23:24.058Z,13.73
2022-12-24T06:25:51.459Z,11.67
2022-12-24T06:28:18.553Z,18.80
2022-12-24T06:30:49.909Z,10.53
2022-12-24T06:33:17.348Z,21.53
2022-12-24T06:35:46.049Z,12.50
2022-12-24T06:38:13.824Z,15.57
2022-12-24T06:40:41.736Z,15.17
2022-12-24T06:43:08.341Z,22.00
2022-12-24T06:45:35.042Z,12.93
2022-12-24T06:48:01.806Z,18.57
2022-12-24T06:50:29.486Z,19.60
2022-12-24T06:52:56.073Z,14.10
2022-12-24T06:55:22.656Z,14.70
2022-12-24T06:57:49.188Z,14.87
2022-12-24T07:00:16.067Z,16.67
2022-12-24T07:02:43.703Z,23.67
2022-12-24T07:05:13.510Z,24.27
2022-12-24T07:07:42.685Z,17.20
2022-12-24T07:10:12.453Z,15.30
2022-12-24T07:12:39.026Z,16.73
2022-12-24T07:15:06.031Z,17.43
2022-12-24T07:17:32.879Z,18.93
2022-12-24T07:19:59.477Z,9.13
2022-12-24T07:22:26.044Z,11.30
2022-12-24T07:24:52.633Z,18.43
2022-12-24T07:27:19.186Z,12.23
2022-12-24T07:29:45.776Z,19.40
2022-12-24T07:32:12.331Z,15.10
2022-12-24T07:34:39.681Z,19.23
2022-12-24T07:37:07.337Z,21.40
2022-12-24T07:39:33.962Z,17.87
2022-12-24T07:42:00.797Z,17.23
2022-12-24T07:44:27.368Z,15.40
2022-12-24T07:46:54.053Z,18.37
2022-12-24T07:49:20.688Z,13.23
2022-12-24T07:51:47.287Z,14.07
2022-12-24T07:54:14.641Z,18.03
2022-12-24T07:56:42.458Z,15.33
2022-12-24T07:59:12.011Z,14.93
2022-12-24T08:01:38.795Z,13.90
2022-12-24T08:04:05.807Z,13.80
2022-12-24T08:06:32.487Z,10.30
2022-12-24T08:08:59.052Z,23.60
2022-12-24T08:11:25.633Z,30.93
2022-12-24T08:13:52.591Z,21.23
2022-12-24T08:16:19.206Z,16.13
2022-12-24T08:18:45.867Z,15.47
2022-12-24T08:21:12.480Z,13.10
2022-12-24T08:23:39.055Z,8.80
2022-12-24T08:26:10.105Z,22.00
2022-12-24T08:28:37.141Z,14.20
2022-12-24T08:31:04.147Z,8.77
2022-12-24T08:33:32.057Z,18.33
2022-12-24T08:36:00.803Z,23.83
2022-12-24T08:38:27.356Z,15.27
2022-12-24T08:40:54.955Z,16.60
2022-12-24T08:43:22.113Z,11.70
2022-12-24T08:45:49.996Z,26.13
2022-12-24T08:48:17.026Z,11.87
2022-12-24T08:50:44.099Z,13.93
2022-12-24T08:53:11.506Z,13.40
2022-12-24T08:55:39.410Z,13.40
2022-12-24T08:58:06.265Z,16.90
2022-12-24T09:00:32.879Z,13.07
2022-12-24T09:02:59.583Z,30.93
2022-12-24T09:05:26.226Z,14.93
2022-12-24T09:07:53.147Z,20.17
2022-12-24T09:10:20.129Z,16.63
2022-12-24T09:12:46.871Z,27.00
2022-12-24T09:15:14.327Z,15.37
2022-12-24T09:17:41.250Z,21.40
2022-12-24T09:20:08.558Z,19.27
2022-12-24T09:22:38.366Z,9.40
2022-12-24T09:25:10.375Z,17.13
2022-12-24T09:27:37.502Z,24.53
2022-12-24T09:30:06.287Z,16.80
2022-12-24T09:32:33.854Z,18.27
2022-12-24T09:35:00.804Z,21.23
2022-12-24T09:37:27.428Z,17.73
2022-12-24T09:39:54.035Z,12.90
2022-12-24T09:42:31.954Z,25.57
2022-12-24T09:45:29.587Z,18.10
2022-12-24T09:48:01.915Z,16.27
2022-12-24T09:50:52.312Z,26.80
2022-12-24T09:53:32.226Z,14.83
2022-12-24T09:56:01.988Z,13.90
2022-12-24T09:58:37.349Z,19.27
2022-12-24T10:01:04.356Z,9.73
2022-12-24T10:03:31.891Z,17.30
2022-12-24T10:05:58.491Z,23.77
2022-12-24T10:08:51.017Z,15.00
2022-12-24T10:11:52.303Z,18.40
2022-12-24T10:14:40.674Z,11.40
2022-12-24T10:17:41.935Z,17.47
2022-12-24T10:20:27.034Z,17.00
2022-12-24T10:23:13.466Z,22.50
2022-12-24T10:25:59.064Z,22.03
2022-12-24T10:28:38.476Z,16.10
2022-12-24T10:31:08.465Z,14.23
2022-12-24T10:33:43.192Z,16.60
2022-12-24T10:36:18.694Z,22.33
2022-12-24T10:38:46.134Z,20.37
2022-12-24T10:41:14.391Z,25.20
2022-12-24T10:43:43.127Z,24.33
2022-12-24T10:46:28.039Z,14.27
2022-12-24T10:49:07.132Z,19.37
2022-12-24T10:51:33.660Z,23.27
2022-12-24T10:54:13.914Z,22.30
2022-12-24T10:56:47.832Z,16.03
2022-12-24T10:59:30.621Z,19.20
2022-12-24T11:02:01.678Z,26.13
2022-12-24T11:04:31.682Z,15.97
2022-12-24T11:07:04.186Z,14.50
2022-12-24T11:09:43.243Z,16.37
2022-12-24T11:12:21.673Z,24.17
2022-12-24T11:14:50.793Z,9.97
2022-12-24T11:17:23.002Z,15.20
2022-12-24T11:19:50.752Z,17.43
2022-12-24T11:22:29.236Z,9.00
2022-12-24T11:25:17.360Z,18.97
2022-12-24T11:27:49.547Z,19.63
2022-12-24T11:30:16.267Z,12.80
2022-12-24T11:32:45.246Z,21.40
2022-12-24T11:35:24.596Z,30.93
2022-12-24T11:38:00.109Z,13.57
2022-12-24T11:40:35.231Z,19.40
2022-12-24T11:43:03.071Z,21.70
2022-12-24T11:45:32.317Z,14.07
2022-12-24T11:48:00.204Z,13.67
2022-12-24T11:50:36.471Z,20.57
2022-12-24T11:53:03.004Z,13.27
2022-12-24T11:55:55.550Z,15.13
2022-12-24T11:58:40.874Z,12.73
2022-12-24T12:01:24.614Z,14.37
2022-12-24T12:04:35.091Z,28.60
2022-12-24T12:07:15.012Z,25.90
2022-12-24T12:09:47.378Z,21.50
2022-12-24T12:12:22.139Z,12.13
2022-12-24T12:14:55.845Z,11.37
2022-12-24T12:17:43.733Z,18.73
2022-12-24T12:20:16.585Z,17.03
2022-12-24T12:23:07.767Z,24.00
2022-12-24T12:25:43.162Z,15.13
2022-12-24T12:28:20.362Z,17.50
2022-12-24T12:30:55.677Z,16.30
2022-12-24T12:33:57.190Z,19.23
2022-12-24T12:36:30.252Z,19.17
2022-12-24T12:38:56.923Z,13.80
2022-12-24T12:41:55.225Z,18.80
2022-12-24T12:45:04.522Z,14.93
2022-12-24T12:48:01.141Z,19.80
2022-12-24T12:50:52.605Z,13.87
2022-12-24T12:53:39.315Z,16.40
2022-12-24T12:56:29.908Z,18.00
2022-12-24T12:59:05.516Z,15.00
2022-12-24T13:01:55.634Z,14.10
2022-12-24T13:04:40.547Z,22.47
2022-12-24T13:07:25.953Z,21.93
2022-12-24T13:10:33.842Z,30.53
2022-12-24T13:13:32.494Z,16.10
2022-12-24T13:16:24.450Z,13.17
2022-12-24T13:18:51.054Z,14.87
2022-12-24T13:21:21.775Z,16.87
2022-12-24T13:23:49.384Z,19.10
2022-12-24T13:26:16.719Z,19.47
2022-12-24T13:28:43.635Z,17.37
2022-12-24T13:31:25.255Z,17.57
2022-12-24T13:33:57.410Z,10.60
2022-12-24T13:36:24.331Z,21.47
2022-12-24T13:38:57.705Z,19.23
2022-12-24T13:41:38.911Z,14.03
2022-12-24T13:44:06.947Z,13.73
2022-12-24T13:46:50.699Z,20.40
2022-12-24T13:49:26.667Z,20.30
2022-12-24T13:52:15.822Z,11.87
2022-12-24T13:55:10.036Z,16.33
2022-12-24T13:58:03.817Z,18.57
2022-12-24T14:00:43.463Z,16.53
2022-12-24T14:03:13.230Z,25.43
2022-12-24T14:05:42.926Z,22.23
2022-12-24T14:08:16.810Z,17.60
2022-12-24T14:11:15.869Z,22.70
2022-12-24T14:13:42.370Z,14.50
2022-12-24T14:16:17.294Z,16.63
2022-12-24T14:19:00.880Z,22.00
2022-12-24T14:21:35.340Z,14.03
2022-12-24T14:24:06.757Z,24.83
2022-12-24T14:27:06.798Z,16.97
2022-12-24T14:29:37.490Z,11.23
2022-12-24T14:32:13.970Z,15.53
2022-12-24T14:34:40.608Z,28.43
2022-12-24T14:37:10.452Z,14.37
2022-12-24T14:39:41.963Z,16.43
2022-12-24T14:42:27.046Z,20.67
2022-12-24T14:45:05.413Z,14.77
2022-12-24T14:47:44.634Z,19.43
2022-12-24T14:50:34.297Z,17.27
2022-12-24T14:53:19.092Z,20.90
2022-12-24T14:55:48.423Z,19.67
2022-12-24T14:58:19.723Z,16.40
2022-12-24T15:00:46.512Z,27.57
2022-12-24T15:03:15.952Z,16.13
2022-12-24T15:05:43.892Z,14.83
2022-12-24T15:08:17.334Z,21.43
2022-12-24T15:10:46.577Z,23.73
2022-12-24T15:13:26.124Z,18.53
2022-12-24T15:15:55.103Z,19.80
2022-12-24T15:18:26.511Z,18.23
2022-12-24T15:21:01.790Z,24.03
2022-12-24T15:23:34.726Z,21.23
2022-12-24T15:26:08.764Z,18.07
2022-12-24T15:28:38.324Z,16.57
2022-12-24T15:31:17.408Z,15.37
2022-12-24T15:33:52.839Z,22.93
2022-12-24T15:36:42.760Z,19.60
2022-12-24T15:39:16.614Z,24.00
2022-12-24T15:42:03.628Z,37.00
2022-12-24T15:44:35.009Z,17.30
2022-12-24T15:47:04.796Z,33.13
2022-12-24T15:49:33.100Z,21.30
2022-12-24T15:52:09.595Z,30.93
2022-12-24T15:54:36.623Z,15.90
2022-12-24T15:57:27.142Z,14.50
2022-12-24T15:59:56.422Z,13.87
2022-12-24T16:02:42.153Z,19.73
2022-12-24T16:05:18.533Z,19.53
2022-12-24T16:08:10.010Z,15.90
2022-12-24T16:10:40.515Z,17.53
2022-12-24T16:13:22.297Z,20.53
2022-12-24T16:15:55.852Z,17.37
2022-12-24T16:18:42.373Z,21.30
2022-12-24T16:21:09.220Z,24.40
2022-12-24T16:23:52.393Z,23.23
2022-12-24T16:26:18.995Z,27.90
2022-12-24T16:28:45.657Z,22.20
2022-12-24T16:31:45.878Z,14.97
2022-12-24T16:34:15.025Z,21.30
2022-12-24T16:36:44.646Z,24.67
2022-12-24T16:39:26.699Z,22.33
2022-12-24T16:42:14.000Z,33.03
2022-12-24T16:44:41.432Z,30.73
2022-12-24T16:47:34.654Z,19.23
2022-12-24T16:50:08.610Z,21.20
2022-12-24T16:52:35.291Z,21.03
2022-12-24T16:55:02.305Z,24.37
2022-12-24T16:57:29.370Z,23.50
2022-12-24T16:59:55.969Z,25.47
2022-12-24T17:02:24.829Z,20.13
2022-12-24T17:04:52.210Z,17.77
2022-12-24T17:07:21.011Z,19.13
2022-12-24T17:09:47.653Z,35.27
2022-12-24T17:12:14.322Z,20.40
2022-12-24T17:14:42.251Z,17.47
2022-12-24T17:17:22.861Z,26.10
2022-12-24T17:19:49.459Z,22.20
2022-12-24T17:22:16.252Z,19.10
2022-12-24T17:24:43.227Z,19.77
2022-12-24T17:27:09.872Z,27.10
2022-12-24T17:29:36.483Z,24.70
2022-12-24T17:32:03.317Z,28.47
2022-12-24T17:34:29.996Z,24.73
2022-12-24T17:36:56.597Z,27.93
2022-12-24T17:39:27.641Z,22.97
2022-12-24T17:41:54.951Z,24.13
2022-12-24T17:44:21.480Z,37.50
2022-12-24T17:46:48.098Z,27.87
2022-12-24T17:49:14.813Z,28.73
2022-12-24T17:51:45.623Z,29.97
2022-12-24T17:54:13.123Z,19.27
2022-12-24T17:56:39.720Z,19.20
2022-12-24T17:59:06.345Z,26.70
2022-12-24T18:01:33.294Z,28.23
2022-12-24T18:04:01.845Z,19.73
2022-12-24T18:06:28.563Z,15.43
2022-12-24T18:08:55.462Z,19.10
2022-12-24T18:11:32.549Z,20.17
2022-12-24T18:14:00.997Z,22.83
2022-12-24T18:16:33.563Z,23.33
2022-12-24T18:19:00.661Z,22.77
2022-12-24T18:21:29.601Z,28.87
2022-12-24T18:23:56.773Z,22.70
2022-12-24T18:26:25.851Z,21.23
2022-12-24T18:28:57.699Z,24.20
2022-12-24T18:31:26.549Z,17.70
2022-12-24T18:33:55.617Z,20.97
2022-12-24T18:36:23.207Z,23.70
2022-12-24T18:38:50.216Z,20.37
2022-12-24T18:41:23.121Z,19.30
2022-12-24T18:43:50.040Z,21.57
2022-12-24T18:46:20.270Z,25.20
2022-12-24T18:48:47.639Z,26.83
2022-12-24T18:51:15.150Z,32.40
2022-12-24T18:53:42.187Z,31.33
2022-12-24T18:56:17.796Z,34.53
2022-12-24T18:58:45.247Z,26.17
2022-12-24T19:01:26.621Z,26.27
2022-12-24T19:03:53.788Z,34.83
2022-12-24T19:06:21.104Z,26.13
2022-12-24T19:09:03.404Z,29.40
2022-12-24T19:11:32.249Z,23.93
2022-12-24T19:14:00.306Z,26.27
2022-12-24T19:16:28.497Z,29.47
2022-12-24T19:18:55.428Z,18.50
2022-12-24T19:21:22.064Z,27.97
2022-12-24T19:23:49.073Z,19.40
2022-12-24T19:26:17.536Z,28.37
2022-12-24T19:28:44.587Z,21.27
2022-12-24T19:31:14.289Z,22.03
2022-12-24T19:33:44.087Z,24.20
2022-12-24T19:36:14.744Z,24.27
2022-12-24T19:38:41.752Z,26.07
2022-12-24T19:41:13.411Z,20.43
2022-12-24T19:43:41.439Z,23.10
2022-12-24T19:46:14.321Z,24.57
2022-12-24T19:48:42.137Z,22.63
2022-12-24T19:51:11.994Z,22.40
2022-12-24T19:53:39.059Z,26.40
2022-12-24T19:56:06.258Z,33.43
2022-12-24T19:58:32.906Z,37.33
2022-12-24T20:01:14.530Z,27.83
2022-12-24T20:03:42.258Z,33.17
2022-12-24T20:06:09.167Z,43.90
2022-12-24T20:08:36.858Z,26.00
2022-12-24T20:11:08.671Z,32.20
2022-12-24T20:13:37.053Z,35.50
2022-12-24T20:16:09.763Z,29.10
2022-12-24T20:18:36.767Z,43.27
2022-12-24T20:21:07.941Z,49.13
2022-12-24T20:23:39.005Z,45.90
2022-12-24T20:26:07.837Z,48.37
2022-12-24T20:28:36.636Z,36.30
2022-12-24T20:31:25.876Z,37.10
2022-12-24T20:33:53.314Z,40.13
2022-12-24T20:36:21.554Z,44.80
2022-12-24T20:38:48.712Z,45.77
2022-12-24T20:41:18.027Z,43.10
2022-12-24T20:43:48.373Z,41.57
2022-12-24T20:46:16.855Z,34.50
2022-12-24T20:48:43.469Z,65.43
2022-12-24T20:51:24.349Z,43.47
2022-12-24T20:53:56.610Z,46.73
2022-12-24T20:56:23.439Z,48.30
2022-12-24T20:58:50.315Z,44.70
2022-12-24T21:01:25.830Z,46.33
2022-12-24T21:03:54.595Z,41.30
2022-12-24T21:06:21.883Z,40.20
2022-12-24T21:08:49.633Z,36.30
2022-12-24T21:11:34.855Z,44.97
2022-12-24T21:14:02.011Z,54.10
2022-12-24T21:16:30.393Z,51.00
2022-12-24T21:18:57.076Z,40.00
2022-12-24T21:21:23.757Z,37.80
2022-12-24T21:23:50.430Z,53.83
2022-12-24T21:26:17.108Z,39.90
2022-12-24T21:28:45.222Z,44.07
2022-12-24T21:31:13.349Z,40.40
2022-12-24T21:33:40.441Z,43.83
2022-12-24T21:36:07.718Z,46.53
2022-12-24T21:38:34.578Z,41.93
2022-12-24T21:41:06.490Z,43.17
2022-12-24T21:43:35.016Z,33.90
2022-12-24T21:46:05.794Z,37.30
2022-12-24T21:48:50.958Z,36.30
2022-12-24T21:51:17.635Z,36.90
2022-12-24T21:54:02.735Z,45.30
2022-12-24T21:56:29.340Z,51.07
2022-12-24T21:58:55.896Z,33.77
2022-12-24T22:01:22.896Z,40.47
2022-12-24T22:03:49.958Z,37.30
2022-12-24T22:06:35.305Z,32.87
2022-12-24T22:09:20.727Z,44.20
2022-12-24T22:11:54.635Z,27.60
2022-12-24T22:14:21.755Z,29.57
2022-12-24T22:16:48.443Z,32.30
2022-12-24T22:19:15.131Z,31.87
2022-12-24T22:21:41.852Z,29.67
2022-12-24T22:24:08.764Z,30.23
2022-12-24T22:26:35.401Z,32.50
2022-12-24T22:29:04.798Z,32.30
2022-12-24T22:31:32.456Z,23.13
2022-12-24T22:33:59.256Z,35.63
2022-12-24T22:36:25.887Z,41.03
2022-12-24T22:38:52.435Z,31.03
2022-12-24T22:41:19.089Z,37.83
2022-12-24T22:43:45.667Z,30.97
2022-12-24T22:46:13.730Z,35.70
2022-12-24T22:48:41.888Z,31.40
2022-12-24T22:51:14.152Z,33.13
2022-12-24T22:53:40.991Z,32.00
2022-12-24T22:56:11.349Z,20.93
2022-12-24T22:58:37.910Z,29.20
2022-12-24T23:01:04.751Z,30.60
2022-12-24T23:03:31.478Z,29.30
2022-12-24T23:06:07.335Z,30.20
2022-12-24T23:08:35.676Z,23.43
2022-12-24T23:11:11.080Z,28.40
2022-12-24T23:13:58.434Z,27.27
2022-12-24T23:16:27.078Z,33.60
2022-12-24T23:18:56.344Z,25.60
2022-12-24T23:21:23.641Z,20.30
2022-12-24T23:23:50.657Z,19.97
2022-12-24T23:26:18.895Z,22.13
2022-12-24T23:28:45.882Z,31.60
2022-12-24T23:31:12.964Z,22.10
2022-12-24T23:33:39.579Z,26.70
2022-12-24T23:36:06.769Z,19.27
2022-12-24T23:38:33.682Z,37.53
2022-12-24T23:41:02.425Z,22.63
2022-12-24T23:43:29.303Z,23.10
2022-12-24T23:45:56.359Z,24.63
2022-12-24T23:48:24.420Z,24.10
2022-12-24T23:50:51.273Z,24.87
2022-12-24T23:53:19.047Z,31.50
2022-12-24T23:55:46.315Z,16.40
2022-12-24T23:58:15.182Z,25.47
